Time;durP1;ratioP1;P1;durP2;ratioP2;P2;SDS_P1;SDS_P2;PMS_P1;PMS_P2;Temp;Humidity;BMP_temperature;BMP_pressure;BME280_temperature;BME280_humidity;BME280_pressure;Samples;Min_cycle;Max_cycle;Signal;HPM_P1;HPM_P2
2023/09/11 00:01:00;;;;;;;116.55;48.65;;;;;;;;;;4961582;28;20062;-62
2023/09/11 00:03:54;;;;;;;123.75;48.05;;;;;;;;;;4960451;28;20090;-51
2023/09/11 00:06:41;;;;;;;131.13;50.28;;;;;;;;;;4956862;28;20046;-58
2023/09/11 00:09:35;;;;;;;121.43;48.33;;;;;;;;;;4957630;28;20145;-56
2023/09/11 00:12:29;;;;;;;119.95;49.00;;;;;;;;;;4955088;28;20046;-58
2023/09/11 00:15:23;;;;;;;106.72;45.30;;;;;;;;;;4960305;28;20822;-57
2023/09/11 00:18:10;;;;;;;126.47;48.95;;;;;;;;;;4954319;28;20051;-58
2023/09/11 00:21:04;;;;;;;132.35;50.85;;;;;;;;;;4951553;28;20051;-58
2023/09/11 00:23:51;;;;;;;117.65;48.25;;;;;;;;;;4959758;28;20050;-62
2023/09/11 00:26:45;;;;;;;120.40;48.50;;;;;;;;;;4952503;28;20141;-65
2023/09/11 00:29:32;;;;;;;141.80;52.08;;;;;;;;;;4957563;28;20113;-61
2023/09/11 00:32:26;;;;;;;114.80;48.85;;;;;;;;;;4957257;28;20059;-61
2023/09/11 00:35:14;;;;;;;138.35;52.78;;;;;;;;;;4961534;28;20149;-62
2023/09/11 00:38:07;;;;;;;131.27;52.30;;;;;;;;;;4963769;28;20703;-62
2023/09/11 00:41:01;;;;;;;132.90;53.30;;;;;;;;;;4958199;28;20101;-57
2023/09/11 00:43:49;;;;;;;129.95;52.13;;;;;;;;;;4963186;28;20057;-59
2023/09/11 00:46:43;;;;;;;136.23;52.45;;;;;;;;;;4963616;28;20063;-59
2023/09/11 00:49:30;;;;;;;149.98;53.97;;;;;;;;;;4962075;28;20051;-60
2023/09/11 00:52:25;;;;;;;162.80;57.58;;;;;;;;;;4963897;28;20121;-61
2023/09/11 00:55:12;;;;;;;167.63;56.72;;;;;;;;;;4964042;28;20042;-60
2023/09/11 00:58:06;;;;;;;168.15;58.47;;;;;;;;;;4965407;28;20462;-62
2023/09/11 01:00:54;;;;;;;173.63;60.38;;;;;;;;;;4966517;28;20568;-63
2023/09/11 01:03:47;;;;;;;164.90;54.95;;;;;;;;;;4961904;28;20110;-63
2023/09/11 01:06:34;;;;;;;202.20;63.33;;;;;;;;;;4962014;28;20066;-63
2023/09/11 01:09:28;;;;;;;176.57;60.63;;;;;;;;;;4959568;28;20189;-63
2023/09/11 01:12:22;;;;;;;183.48;61.55;;;;;;;;;;4963028;28;20514;-63
2023/09/11 01:15:16;;;;;;;145.55;52.38;;;;;;;;;;4982698;28;20105;-63
2023/09/11 01:18:15;;;;;;;198.13;62.85;;;;;;;;;;4965667;28;20061;-45
2023/09/11 01:21:12;;;;;;;182.93;61.83;;;;;;;;;;4968191;28;20047;-49
2023/09/11 01:24:08;;;;;;;166.95;60.40;;;;;;;;;;4981238;28;20050;-47
2023/09/11 01:27:04;;;;;;;182.63;63.13;;;;;;;;;;4981696;28;20058;-52
2023/09/11 01:29:59;;;;;;;162.40;56.63;;;;;;;;;;4981052;28;20113;-50
2023/09/11 01:32:46;;;;;;;201.53;61.87;;;;;;;;;;4982352;28;20121;-48
2023/09/11 01:35:40;;;;;;;226.13;67.57;;;;;;;;;;4980189;28;20302;-46
2023/09/11 01:38:28;;;;;;;180.00;61.63;;;;;;;;;;4981539;28;20058;-63
2023/09/11 01:41:26;;;;;;;200.27;65.38;;;;;;;;;;4976777;28;20055;-63
2023/09/11 01:44:21;;;;;;;215.63;67.20;;;;;;;;;;4982448;28;20038;-65
2023/09/11 01:47:17;;;;;;;175.60;60.45;;;;;;;;;;4982946;28;20050;-63
2023/09/11 01:50:05;;;;;;;207.88;66.25;;;;;;;;;;4981158;28;20046;-63
2023/09/11 01:52:59;;;;;;;177.68;62.17;;;;;;;;;;4984371;28;20153;-48
2023/09/11 01:55:47;;;;;;;210.00;65.55;;;;;;;;;;4979466;28;20064;-57
2023/09/11 01:58:40;;;;;;;201.75;68.57;;;;;;;;;;4979854;28;20063;-56
2023/09/11 02:01:27;;;;;;;162.18;59.92;;;;;;;;;;4980442;28;20078;-58
2023/09/11 02:04:21;;;;;;;145.23;54.90;;;;;;;;;;4978683;28;20534;-58
2023/09/11 02:07:09;;;;;;;179.57;62.22;;;;;;;;;;4983116;28;20069;-59
2023/09/11 02:10:02;;;;;;;162.90;58.90;;;;;;;;;;4978371;28;20083;-57
2023/09/11 02:12:56;;;;;;;189.80;64.22;;;;;;;;;;4980021;28;20058;-49
2023/09/11 02:15:50;;;;;;;175.45;60.97;;;;;;;;;;4984921;28;20499;-62
2023/09/11 02:18:38;;;;;;;192.27;63.78;;;;;;;;;;4982678;28;20803;-62
2023/09/11 02:21:31;;;;;;;196.05;65.50;;;;;;;;;;4982546;28;20069;-62
2023/09/11 02:24:19;;;;;;;210.50;67.57;;;;;;;;;;4980694;28;20042;-61
2023/09/11 02:27:12;;;;;;;152.70;62.05;;;;;;;;;;4979923;28;20062;-62
2023/09/11 02:29:59;;;;;;;92.45;42.40;;;;;;;;;;4977844;28;20116;-62
2023/09/11 02:32:54;;;;;;;164.05;62.33;;;;;;;;;;4980768;28;20057;-58
2023/09/11 02:35:41;;;;;;;168.50;60.75;;;;;;;;;;4979816;28;20115;-58
2023/09/11 02:38:34;;;;;;;152.05;59.42;;;;;;;;;;4982165;28;20166;-58
2023/09/11 02:41:21;;;;;;;201.45;67.70;;;;;;;;;;4982010;28;20110;-58
2023/09/11 02:44:15;;;;;;;176.85;63.28;;;;;;;;;;4987230;28;20130;-58
2023/09/11 02:47:05;;;;;;;212.57;70.55;;;;;;;;;;4981117;28;20513;-58
2023/09/11 02:49:57;;;;;;;145.38;55.65;;;;;;;;;;4983219;28;20058;-62
2023/09/11 02:52:44;;;;;;;253.18;75.40;;;;;;;;;;4983913;28;20080;-63
2023/09/11 02:55:38;;;;;;;192.27;66.53;;;;;;;;;;4983599;28;20594;-62
2023/09/11 02:58:25;;;;;;;250.82;71.60;;;;;;;;;;4979268;28;20080;-59
2023/09/11 03:01:18;;;;;;;176.13;61.95;;;;;;;;;;4980451;28;20105;-58
2023/09/11 03:04:06;;;;;;;208.63;66.43;;;;;;;;;;4980986;28;20091;-58
2023/09/11 03:06:59;;;;;;;215.13;68.57;;;;;;;;;;4979650;28;20050;-57
2023/09/11 03:09:47;;;;;;;197.73;67.00;;;;;;;;;;4978426;28;20069;-58
2023/09/11 03:12:54;;;;;;;191.45;63.50;;;;;;;;;;4977157;28;20053;-56
2023/09/11 03:15:49;;;;;;;218.50;68.20;;;;;;;;;;4958425;28;20047;-61
2023/09/11 03:18:42;;;;;;;170.88;63.00;;;;;;;;;;4973694;28;20055;-59
2023/09/11 03:21:29;;;;;;;143.30;52.53;;;;;;;;;;4977610;28;20113;-50
2023/09/11 03:24:23;;;;;;;150.77;56.97;;;;;;;;;;4976096;28;20054;-52
2023/09/11 03:27:10;;;;;;;177.68;60.85;;;;;;;;;;4981017;28;20537;-48
2023/09/11 03:30:04;;;;;;;152.85;60.58;;;;;;;;;;4978147;28;20054;-48
2023/09/11 03:32:52;;;;;;;170.73;61.90;;;;;;;;;;4980876;28;20077;-47
2023/09/11 03:35:46;;;;;;;172.82;59.63;;;;;;;;;;4978481;28;20057;-63
2023/09/11 03:38:33;;;;;;;157.43;58.10;;;;;;;;;;4979413;28;20062;-48
2023/09/11 03:41:27;;;;;;;164.50;59.78;;;;;;;;;;4976989;28;20313;-50
2023/09/11 03:44:15;;;;;;;155.10;58.03;;;;;;;;;;4980600;28;20065;-51
2023/09/11 03:47:08;;;;;;;159.23;57.70;;;;;;;;;;4975784;28;20062;-46
2023/09/11 03:50:04;;;;;;;178.15;58.78;;;;;;;;;;4976455;28;20054;-48
2023/09/11 03:52:50;;;;;;;157.05;57.70;;;;;;;;;;4980270;28;20054;-60
2023/09/11 03:55:44;;;;;;;152.35;59.03;;;;;;;;;;4979878;28;20060;-59
2023/09/11 03:58:32;;;;;;;111.90;50.15;;;;;;;;;;4978942;28;20052;-55
2023/09/11 04:01:25;;;;;;;184.10;64.00;;;;;;;;;;4976507;28;20082;-58
2023/09/11 04:03:53;;;;;;;181.07;63.45;;;;;;;;;;4975795;28;21425;-58
2023/09/11 04:06:27;;;;;;;173.60;62.63;;;;;;;;;;4982356;28;20054;-58
2023/09/11 04:08:54;;;;;;;151.10;58.67;;;;;;;;;;4984817;28;20058;-58
2023/09/11 04:11:22;;;;;;;169.13;61.70;;;;;;;;;;4980307;28;20054;-51
2023/09/11 04:14:22;;;;;;;159.10;60.17;;;;;;;;;;4980141;28;20141;-58
2023/09/11 04:17:10;;;;;;;177.20;60.85;;;;;;;;;;4972582;28;20069;-58
2023/09/11 04:20:05;;;;;;;171.55;59.17;;;;;;;;;;4981447;28;21743;-58
2023/09/11 04:22:51;;;;;;;186.20;62.53;;;;;;;;;;4979514;28;20500;-58
2023/09/11 04:25:45;;;;;;;189.18;62.20;;;;;;;;;;4978676;28;20797;-57
2023/09/11 04:28:34;;;;;;;192.68;63.53;;;;;;;;;;4980655;28;20054;-58
2023/09/11 04:31:28;;;;;;;207.00;65.43;;;;;;;;;;4975781;28;20077;-63
2023/09/11 04:34:15;;;;;;;221.77;66.45;;;;;;;;;;4977650;28;20061;-63
2023/09/11 04:37:08;;;;;;;158.25;57.17;;;;;;;;;;4977146;28;20109;-63
2023/09/11 04:39:56;;;;;;;155.35;55.20;;;;;;;;;;4979004;28;20410;-63
2023/09/11 04:42:49;;;;;;;142.82;52.10;;;;;;;;;;4976672;28;20081;-63
2023/09/11 04:45:36;;;;;;;151.68;54.92;;;;;;;;;;4976941;28;20074;-63
2023/09/11 04:48:30;;;;;;;138.93;52.78;;;;;;;;;;4966049;28;20438;-49
2023/09/11 04:51:18;;;;;;;160.18;56.83;;;;;;;;;;4980650;28;20073;-51
2023/09/11 04:54:11;;;;;;;133.20;53.17;;;;;;;;;;4979358;28;20055;-49
2023/09/11 04:56:58;;;;;;;150.93;53.88;;;;;;;;;;4980615;28;20080;-50
2023/09/11 04:59:52;;;;;;;153.05;56.55;;;;;;;;;;4980476;28;20144;-49
2023/09/11 05:02:40;;;;;;;145.20;54.28;;;;;;;;;;4979618;28;22341;-48
2023/09/11 05:05:38;;;;;;;143.45;52.40;;;;;;;;;;4968783;28;20054;-48
2023/09/11 05:08:49;;;;;;;166.48;57.70;;;;;;;;;;4970269;28;20068;-63
2023/09/11 05:11:38;;;;;;;138.05;53.00;;;;;;;;;;4978176;28;20065;-62
2023/09/11 05:14:39;;;;;;;166.57;56.75;;;;;;;;;;4978855;28;20118;-63
2023/09/11 05:17:27;;;;;;;145.85;54.38;;;;;;;;;;4969354;28;20062;-63
2023/09/11 05:20:20;;;;;;;150.25;54.97;;;;;;;;;;4976410;28;20050;-59
2023/09/11 05:23:08;;;;;;;150.98;53.97;;;;;;;;;;4977795;28;20058;-59
2023/09/11 05:26:03;;;;;;;138.63;51.85;;;;;;;;;;4981075;28;20457;-60
2023/09/11 05:28:49;;;;;;;142.90;54.53;;;;;;;;;;4981590;28;20058;-59
2023/09/11 05:31:42;;;;;;;136.50;52.60;;;;;;;;;;4978206;28;20363;-59
2023/09/11 05:34:29;;;;;;;111.45;48.78;;;;;;;;;;4972116;28;20153;-55
2023/09/11 05:37:23;;;;;;;112.53;49.13;;;;;;;;;;4983940;28;20058;-50
2023/09/11 05:40:11;;;;;;;108.78;47.10;;;;;;;;;;4983705;28;20488;-49
2023/09/11 05:43:05;;;;;;;96.60;44.22;;;;;;;;;;4983098;28;20058;-52
2023/09/11 05:45:52;;;;;;;96.82;43.42;;;;;;;;;;4984070;28;20058;-51
2023/09/11 05:48:45;;;;;;;101.05;43.10;;;;;;;;;;4982439;28;20059;-50
2023/09/11 05:51:39;;;;;;;94.60;42.42;;;;;;;;;;4981788;28;20057;-49
2023/09/11 05:54:34;;;;;;;87.82;38.92;;;;;;;;;;4983388;28;20148;-62
2023/09/11 05:57:21;;;;;;;85.47;38.25;;;;;;;;;;4981734;28;20049;-63
2023/09/11 06:00:14;;;;;;;81.57;38.67;;;;;;;;;;4981686;28;20069;-63
2023/09/11 06:03:02;;;;;;;77.03;35.38;;;;;;;;;;4984319;28;20562;-63
2023/09/11 06:05:55;;;;;;;72.57;34.22;;;;;;;;;;4985271;28;20129;-62
2023/09/11 06:08:49;;;;;;;73.20;35.28;;;;;;;;;;4983659;28;20157;-59
2023/09/11 06:11:43;;;;;;;61.55;33.25;;;;;;;;;;4982273;28;20164;-59
2023/09/11 06:14:44;;;;;;;59.75;31.33;;;;;;;;;;4981739;28;20058;-60
2023/09/11 06:17:33;;;;;;;58.53;30.13;;;;;;;;;;4973705;28;20617;-59
2023/09/11 06:20:26;;;;;;;64.43;31.65;;;;;;;;;;4984697;28;20062;-59
2023/09/11 06:23:14;;;;;;;59.92;30.55;;;;;;;;;;4982015;28;20053;-50
2023/09/11 06:26:07;;;;;;;59.08;31.20;;;;;;;;;;4984278;28;20427;-50
2023/09/11 06:29:02;;;;;;;55.65;30.27;;;;;;;;;;4983043;28;20058;-51
2023/09/11 06:31:55;;;;;;;50.60;27.95;;;;;;;;;;4982309;28;20062;-63
2023/09/11 06:34:49;;;;;;;52.38;27.88;;;;;;;;;;4979847;28;20105;-48
2023/09/11 06:37:43;;;;;;;50.28;26.05;;;;;;;;;;4982047;28;20478;-53
2023/09/11 06:40:31;;;;;;;53.03;25.92;;;;;;;;;;4974790;28;20046;-47
2023/09/11 06:43:25;;;;;;;42.85;24.23;;;;;;;;;;4982003;28;20140;-49
2023/09/11 06:46:11;;;;;;;42.47;24.50;;;;;;;;;;4981723;28;20113;-49
2023/09/11 06:49:05;;;;;;;44.65;23.02;;;;;;;;;;4982225;28;20054;-48
2023/09/11 06:51:52;;;;;;;44.75;25.33;;;;;;;;;;4983570;28;20521;-62
2023/09/11 06:54:46;;;;;;;39.20;24.83;;;;;;;;;;4980200;28;20106;-62
2023/09/11 06:57:34;;;;;;;41.58;22.90;;;;;;;;;;4980721;28;20510;-62
2023/09/11 07:00:27;;;;;;;35.08;20.90;;;;;;;;;;4981884;28;20069;-57
2023/09/11 07:03:16;;;;;;;31.25;17.60;;;;;;;;;;4982981;28;20117;-61
2023/09/11 07:06:08;;;;;;;37.65;22.60;;;;;;;;;;4984097;28;20050;-61
2023/09/11 07:09:08;;;;;;;36.45;21.70;;;;;;;;;;4982615;28;20062;-60
2023/09/11 07:12:01;;;;;;;33.80;20.13;;;;;;;;;;4979706;28;20062;-61
2023/09/11 07:15:02;;;;;;;35.22;20.30;;;;;;;;;;4967397;28;20061;-61
2023/09/11 07:17:53;;;;;;;36.17;20.60;;;;;;;;;;4967264;28;20053;-61
2023/09/11 07:20:45;;;;;;;29.67;18.40;;;;;;;;;;4964830;28;20058;-59
2023/09/11 07:23:39;;;;;;;33.92;19.70;;;;;;;;;;4966196;28;20046;-59
2023/09/11 07:26:27;;;;;;;29.85;18.83;;;;;;;;;;4963130;28;20055;-59
2023/09/11 07:29:26;;;;;;;24.52;16.15;;;;;;;;;;4964238;28;20553;-52
2023/09/11 07:32:08;;;;;;;27.67;16.38;;;;;;;;;;4961993;28;20106;-53
2023/09/11 07:35:02;;;;;;;29.60;17.98;;;;;;;;;;4965393;28;20503;-51
2023/09/11 07:37:49;;;;;;;26.83;16.50;;;;;;;;;;4967813;28;20050;-48
2023/09/11 07:40:44;;;;;;;24.48;15.02;;;;;;;;;;4968193;28;20059;-51
2023/09/11 07:43:30;;;;;;;26.45;15.23;;;;;;;;;;4965892;28;20475;-46
2023/09/11 07:46:24;;;;;;;26.75;16.40;;;;;;;;;;4962850;28;20647;-50
2023/09/11 07:49:12;;;;;;;20.05;14.38;;;;;;;;;;4964623;28;20603;-59
2023/09/11 07:52:05;;;;;;;23.08;14.18;;;;;;;;;;4964743;28;20192;-59
2023/09/11 07:54:59;;;;;;;22.52;14.50;;;;;;;;;;4965800;28;20164;-59
2023/09/11 07:57:47;;;;;;;28.55;14.73;;;;;;;;;;4962813;28;20058;-62
2023/09/11 08:00:48;;;;;;;27.05;15.02;;;;;;;;;;4962732;28;20047;-60
2023/09/11 08:03:36;;;;;;;27.98;14.70;;;;;;;;;;4963924;28;20054;-60
2023/09/11 08:06:30;;;;;;;21.92;13.93;;;;;;;;;;4963866;28;20518;-60
2023/09/11 08:09:17;;;;;;;25.48;15.18;;;;;;;;;;4967576;28;20081;-60
2023/09/11 08:12:10;;;;;;;26.25;13.75;;;;;;;;;;4967115;28;20581;-59
2023/09/11 08:15:04;;;;;;;25.63;14.60;;;;;;;;;;4961233;28;20054;-61
2023/09/11 08:17:58;;;;;;;21.02;14.40;;;;;;;;;;4952405;28;20415;-59
2023/09/11 08:20:55;;;;;;;24.33;15.68;;;;;;;;;;4962657;28;20051;-59
2023/09/11 08:23:50;;;;;;;25.20;15.20;;;;;;;;;;4961896;28;20150;-59
2023/09/11 08:26:38;;;;;;;24.77;15.32;;;;;;;;;;4963883;28;20051;-49
2023/09/11 08:29:31;;;;;;;24.60;14.30;;;;;;;;;;4963426;28;20502;-63
2023/09/11 08:32:18;;;;;;;25.17;16.20;;;;;;;;;;4965167;28;20134;-63
2023/09/11 08:35:12;;;;;;;28.27;18.67;;;;;;;;;;4963592;28;20062;-63
2023/09/11 08:37:59;;;;;;;35.10;18.77;;;;;;;;;;4963721;28;20093;-63
2023/09/11 08:40:52;;;;;;;34.72;18.55;;;;;;;;;;4962892;28;20054;-63
2023/09/11 08:43:41;;;;;;;29.70;17.20;;;;;;;;;;4958236;28;20085;-57
2023/09/11 08:46:35;;;;;;;27.65;16.42;;;;;;;;;;4957926;28;20078;-58
2023/09/11 08:49:23;;;;;;;33.85;16.63;;;;;;;;;;4950884;28;20058;-57
2023/09/11 08:52:24;;;;;;;28.38;16.75;;;;;;;;;;4961270;28;20152;-57
2023/09/11 08:55:22;;;;;;;27.05;16.08;;;;;;;;;;4963418;28;20055;-58
2023/09/11 08:58:11;;;;;;;29.48;15.20;;;;;;;;;;4962480;28;20058;-52
2023/09/11 09:01:06;;;;;;;31.23;16.98;;;;;;;;;;4963345;28;20463;-48
2023/09/11 09:04:01;;;;;;;30.33;17.90;;;;;;;;;;4959761;28;20086;-50
2023/09/11 09:06:49;;;;;;;31.65;18.45;;;;;;;;;;4962379;28;20141;-51
2023/09/11 09:09:43;;;;;;;33.38;18.50;;;;;;;;;;4954985;28;20113;-49
2023/09/11 09:12:30;;;;;;;33.15;19.25;;;;;;;;;;4964899;28;20042;-57
2023/09/11 09:15:34;;;;;;;32.72;17.48;;;;;;;;;;4984222;28;20109;-58
2023/09/11 09:18:21;;;;;;;27.98;17.27;;;;;;;;;;4982501;28;20062;-57
2023/09/11 09:21:15;;;;;;;33.72;16.73;;;;;;;;;;4986087;28;20077;-58
2023/09/11 09:24:09;;;;;;;31.40;16.02;;;;;;;;;;4982468;28;20077;-59
2023/09/11 09:27:04;;;;;;;28.58;15.50;;;;;;;;;;4986477;28;20054;-59
2023/09/11 09:29:51;;;;;;;;;;;;;;;;;;4984907;28;20066;-59
2023/09/11 09:32:44;;;;;;;28.02;14.73;;;;;;;;;;4982355;28;20346;-59
2023/09/11 09:35:33;;;;;;;28.73;15.32;;;;;;;;;;4987437;28;20061;-59
2023/09/11 09:38:27;;;;;;;30.90;15.20;;;;;;;;;;4984546;28;20051;-59
2023/09/11 09:41:20;;;;;;;27.33;14.98;;;;;;;;;;4983974;28;20049;-50
2023/09/11 09:44:27;;;;;;;25.38;13.40;;;;;;;;;;4981708;28;20141;-50
2023/09/11 09:47:19;;;;;;;24.63;14.23;;;;;;;;;;4986408;28;20137;-49
2023/09/11 09:50:13;;;;;;;26.58;14.65;;;;;;;;;;4983396;28;20042;-50
2023/09/11 09:53:00;;;;;;;26.45;15.25;;;;;;;;;;4985131;28;20098;-60
2023/09/11 09:55:57;;;;;;;37.38;15.50;;;;;;;;;;4981621;28;20143;-50
2023/09/11 09:58:50;;;;;;;26.02;15.32;;;;;;;;;;4982769;28;20193;-51
2023/09/11 10:01:45;;;;;;;28.65;14.63;;;;;;;;;;4980534;28;20113;-48
2023/09/11 10:04:32;;;;;;;27.95;13.68;;;;;;;;;;4980472;28;20763;-49
2023/09/11 10:07:46;;;;;;;23.08;14.15;;;;;;;;;;4965369;28;20063;-51
2023/09/11 10:10:33;;;;;;;28.52;13.93;;;;;;;;;;4982653;28;20072;-46
2023/09/11 10:13:33;;;;;;;23.98;14.15;;;;;;;;;;4984024;28;20058;-51
2023/09/11 10:16:28;;;;;;;25.20;12.45;;;;;;;;;;4981002;28;20247;-49
2023/09/11 10:19:22;;;;;;;25.60;14.00;;;;;;;;;;4980306;28;20137;-62
2023/09/11 10:22:09;;;;;;;25.52;13.32;;;;;;;;;;4979701;28;20082;-60
2023/09/11 10:25:02;;;;;;;26.33;12.82;;;;;;;;;;4980534;28;20054;-48
2023/09/11 10:27:52;;;;;;;20.92;11.77;;;;;;;;;;4982299;28;20050;-50
2023/09/11 10:31:00;;;;;;;19.20;12.30;;;;;;;;;;4984579;28;20066;-47
2023/09/11 10:33:50;;;;;;;22.48;11.60;;;;;;;;;;4982548;28;20072;-48
2023/09/11 10:36:47;;;;;;;17.38;10.48;;;;;;;;;;4982848;28;20066;-45
2023/09/11 10:39:36;;;;;;;18.30;10.65;;;;;;;;;;4982857;28;20058;-62
2023/09/11 10:42:30;;;;;;;19.50;11.98;;;;;;;;;;4983211;28;20050;-62
2023/09/11 10:45:29;;;;;;;18.42;11.13;;;;;;;;;;4982673;28;20068;-63
2023/09/11 10:48:27;;;;;;;20.30;11.20;;;;;;;;;;4981549;28;20073;-49
2023/09/11 10:51:16;;;;;;;19.23;11.13;;;;;;;;;;4981322;28;20070;-59
2023/09/11 10:54:11;;;;;;;16.38;10.02;;;;;;;;;;4983358;28;20514;-59
2023/09/11 10:56:59;;;;;;;21.20;10.15;;;;;;;;;;4980272;28;20070;-60
2023/09/11 10:59:53;;;;;;;18.92;11.00;;;;;;;;;;4983962;28;20054;-60
2023/09/11 11:02:40;;;;;;;17.92;10.13;;;;;;;;;;4982932;28;20050;-57
2023/09/11 11:05:35;;;;;;;17.45;10.55;;;;;;;;;;4985629;28;20137;-58
2023/09/11 11:08:25;;;;;;;16.33;9.65;;;;;;;;;;4979112;28;20054;-58
2023/09/11 11:11:21;;;;;;;15.82;9.73;;;;;;;;;;4982031;28;20134;-58
2023/09/11 11:14:18;;;;;;;13.95;9.43;;;;;;;;;;4972251;28;20651;-58
2023/09/11 11:17:18;;;;;;;18.15;9.80;;;;;;;;;;4959416;28;20435;-60
2023/09/11 11:20:07;;;;;;;16.67;9.40;;;;;;;;;;4958244;28;21861;-56
2023/09/11 11:23:10;;;;;;;17.38;10.07;;;;;;;;;;4958016;28;20507;-56
2023/09/11 11:26:04;;;;;;;20.33;9.00;;;;;;;;;;4956051;28;20054;-57
2023/09/11 11:28:58;;;;;;;14.05;9.40;;;;;;;;;;4958235;28;20050;-57
2023/09/11 11:31:46;;;;;;;15.88;9.50;;;;;;;;;;4959168;28;20058;-58
2023/09/11 11:34:41;;;;;;;18.33;10.00;;;;;;;;;;4958747;28;20193;-58
2023/09/11 11:37:30;;;;;;;17.27;10.23;;;;;;;;;;4962578;28;20053;-58
2023/09/11 11:40:24;;;;;;;15.25;9.57;;;;;;;;;;4960523;28;20058;-58
2023/09/11 11:43:18;;;;;;;19.25;10.13;;;;;;;;;;4958482;28;20150;-58
2023/09/11 11:46:06;;;;;;;16.27;9.27;;;;;;;;;;4958414;28;20115;-48
2023/09/11 11:48:59;;;;;;;22.98;9.60;;;;;;;;;;4959258;28;20499;-60
2023/09/11 11:51:47;;;;;;;20.38;9.80;;;;;;;;;;4961778;28;20051;-59
2023/09/11 11:54:40;;;;;;;19.80;9.35;;;;;;;;;;4962355;28;20102;-59
2023/09/11 11:57:29;;;;;;;17.10;9.15;;;;;;;;;;4962257;28;20058;-59
2023/09/11 12:00:23;;;;;;;21.23;9.93;;;;;;;;;;4960632;28;20059;-59
2023/09/11 12:03:10;;;;;;;17.80;9.13;;;;;;;;;;4960977;28;20063;-61
2023/09/11 12:06:04;;;;;;;17.60;9.38;;;;;;;;;;4958051;28;20428;-61
2023/09/11 12:08:51;;;;;;;16.90;9.65;;;;;;;;;;4957425;28;20051;-61
2023/09/11 12:11:45;;;;;;;16.25;8.30;;;;;;;;;;4961570;28;20061;-61
2023/09/11 12:14:38;;;;;;;14.75;8.95;;;;;;;;;;4947895;28;20061;-49
2023/09/11 12:17:32;;;;;;;17.30;8.98;;;;;;;;;;4961057;28;20123;-59
2023/09/11 12:20:22;;;;;;;18.63;9.68;;;;;;;;;;4961240;28;20059;-59
2023/09/11 12:23:15;;;;;;;17.00;8.85;;;;;;;;;;4958836;28;20058;-59
2023/09/11 12:25:46;;;;;;;13.45;8.50;;;;;;;;;;4961296;28;20610;-59
2023/09/11 12:28:21;;;;;;;14.23;7.53;;;;;;;;;;4960542;28;20047;-59
2023/09/11 12:31:09;;;;;;;14.07;7.70;;;;;;;;;;4961638;28;20050;-59
2023/09/11 12:34:03;;;;;;;15.43;8.35;;;;;;;;;;4962625;28;20506;-61
2023/09/11 12:36:50;;;;;;;17.40;8.68;;;;;;;;;;4965589;28;20051;-60
2023/09/11 12:39:44;;;;;;;14.00;8.93;;;;;;;;;;4963027;28;20146;-61
2023/09/11 12:42:31;;;;;;;15.13;8.88;;;;;;;;;;4965217;28;20059;-57
2023/09/11 12:45:24;;;;;;;14.85;8.75;;;;;;;;;;4965445;28;20055;-59
2023/09/11 12:48:12;;;;;;;15.07;8.65;;;;;;;;;;4966456;28;20050;-59
2023/09/11 12:51:07;;;;;;;13.48;8.57;;;;;;;;;;4963031;28;20062;-58
2023/09/11 12:53:54;;;;;;;12.95;8.10;;;;;;;;;;4964081;28;20058;-58
2023/09/11 12:56:48;;;;;;;14.40;7.45;;;;;;;;;;4965223;28;20062;-59
2023/09/11 12:59:36;;;;;;;11.90;7.72;;;;;;;;;;4964708;28;20062;-59
2023/09/11 13:02:33;;;;;;;10.88;7.40;;;;;;;;;;4967606;28;21498;-60
2023/09/11 13:05:20;;;;;;;9.82;6.75;;;;;;;;;;4965425;28;20058;-60
2023/09/11 13:08:17;;;;;;;12.00;6.47;;;;;;;;;;4963760;28;20401;-60
2023/09/11 13:11:11;;;;;;;12.13;6.60;;;;;;;;;;4964593;28;20066;-61
2023/09/11 13:14:18;;;;;;;10.35;7.18;;;;;;;;;;4964008;28;20070;-61
2023/09/11 13:17:12;;;;;;;7.93;5.95;;;;;;;;;;4961747;28;20055;-61
2023/09/11 13:20:07;;;;;;;9.75;6.15;;;;;;;;;;4963260;28;20058;-61
2023/09/11 13:22:54;;;;;;;9.43;6.72;;;;;;;;;;4961994;28;20055;-63
2023/09/11 13:25:48;;;;;;;12.00;6.65;;;;;;;;;;4960645;28;20055;-61
2023/09/11 13:28:35;;;;;;;10.80;5.85;;;;;;;;;;4961545;28;20404;-61
2023/09/11 13:31:29;;;;;;;10.80;6.32;;;;;;;;;;4963726;28;20062;-60
2023/09/11 13:34:16;;;;;;;10.70;5.97;;;;;;;;;;4960931;28;20047;-60
2023/09/11 13:37:09;;;;;;;11.45;6.90;;;;;;;;;;4965616;28;20070;-60
2023/09/11 13:39:57;;;;;;;11.45;6.20;;;;;;;;;;4959805;28;20098;-53
2023/09/11 13:42:51;;;;;;;7.88;5.75;;;;;;;;;;4959441;28;20059;-60
2023/09/11 13:45:38;;;;;;;6.82;5.40;;;;;;;;;;4965121;28;20082;-60
2023/09/11 13:48:32;;;;;;;9.07;5.65;;;;;;;;;;4962674;28;20051;-60
2023/09/11 13:51:19;;;;;;;10.32;5.60;;;;;;;;;;4963418;28;20051;-59
2023/09/11 13:54:12;;;;;;;8.57;5.70;;;;;;;;;;4962214;28;20118;-60
2023/09/11 13:57:00;;;;;;;7.68;5.28;;;;;;;;;;4965342;28;20046;-59
2023/09/11 13:59:42;;;;;;;7.60;5.97;;;;;;;;;;4960331;28;20074;-61
2023/09/11 14:02:09;;;;;;;8.15;5.53;;;;;;;;;;4965985;28;20128;-60
2023/09/11 14:04:36;;;;;;;6.22;5.20;;;;;;;;;;4964755;28;20054;-60
2023/09/11 14:07:29;;;;;;;7.97;5.82;;;;;;;;;;4964120;28;20051;-59
2023/09/11 14:10:16;;;;;;;8.48;5.72;;;;;;;;;;4966450;28;20157;-50
2023/09/11 14:13:11;;;;;;;8.57;5.60;;;;;;;;;;4965166;28;20054;-51
2023/09/11 14:16:04;;;;;;;6.65;5.57;;;;;;;;;;4985431;28;20054;-49
2023/09/11 14:18:58;;;;;;;10.55;5.28;;;;;;;;;;4984147;28;20058;-50
2023/09/11 14:21:45;;;;;;;7.25;5.30;;;;;;;;;;4974864;28;20613;-50
2023/09/11 14:24:40;;;;;;;7.53;5.70;;;;;;;;;;4979152;28;20106;-53
2023/09/11 14:27:27;;;;;;;;;;;;;;;;;;4983847;28;20146;-61
2023/09/11 14:30:21;;;;;;;7.68;5.32;;;;;;;;;;4981278;28;19969;-46
2023/09/11 14:33:08;;;;;;;9.07;5.60;;;;;;;;;;4983382;28;20054;-45
2023/09/11 14:36:03;;;;;;;7.28;5.50;;;;;;;;;;4984397;28;20051;-48
2023/09/11 14:38:49;;;;;;;5.75;4.95;;;;;;;;;;4975951;28;20062;-46
2023/09/11 14:41:43;;;;;;;8.73;4.97;;;;;;;;;;4980954;28;20498;-49
2023/09/11 14:44:30;;;;;;;10.13;5.15;;;;;;;;;;4981116;28;20061;-57
2023/09/11 14:47:24;;;;;;;10.68;5.43;;;;;;;;;;4983740;28;20494;-58
2023/09/11 14:50:11;;;;;;;5.10;3.80;;;;;;;;;;4980571;28;20058;-57
2023/09/11 14:53:05;;;;;;;5.38;4.32;;;;;;;;;;4981005;28;20209;-57
2023/09/11 14:55:52;;;;;;;8.43;4.13;;;;;;;;;;4981800;28;20054;-59
2023/09/11 14:58:46;;;;;;;5.30;4.28;;;;;;;;;;4980509;28;20058;-49
2023/09/11 15:01:36;;;;;;;6.68;4.15;;;;;;;;;;4982430;28;20054;-49
2023/09/11 15:04:30;;;;;;;7.32;4.63;;;;;;;;;;4978920;28;20057;-46
2023/09/11 15:07:19;;;;;;;7.45;5.30;;;;;;;;;;4964671;28;20070;-50
2023/09/11 15:10:13;;;;;;;7.72;4.95;;;;;;;;;;4975892;28;20499;-52
2023/09/11 15:13:00;;;;;;;11.05;5.47;;;;;;;;;;4982960;28;20077;-59
2023/09/11 15:16:00;;;;;;;6.13;5.20;;;;;;;;;;4979412;28;20074;-59
2023/09/11 15:18:48;;;;;;;7.43;4.93;;;;;;;;;;4979387;28;20078;-59
2023/09/11 15:21:42;;;;;;;5.57;4.88;;;;;;;;;;4978442;28;20108;-59
2023/09/11 15:24:29;;;;;;;6.70;5.10;;;;;;;;;;4983255;28;20054;-60
2023/09/11 15:27:17;;;;;;;;;;;;;;;;;;4984357;28;20058;-59
2023/09/11 15:30:05;;;;;;;6.72;5.13;;;;;;;;;;4982938;28;20390;-59
2023/09/11 15:33:00;;;;;;;8.55;4.90;;;;;;;;;;4979277;28;20058;-59
2023/09/11 15:36:03;;;;;;;8.32;5.22;;;;;;;;;;4980020;28;20112;-59
2023/09/11 15:38:44;;;;;;;8.30;5.43;;;;;;;;;;4980193;28;20058;-59
2023/09/11 15:41:31;;;;;;;8.68;5.63;;;;;;;;;;4981115;28;20540;-60
2023/09/11 15:44:25;;;;;;;8.45;5.20;;;;;;;;;;4980380;28;20069;-62
2023/09/11 15:47:12;;;;;;;8.90;5.00;;;;;;;;;;4979756;28;20057;-62
2023/09/11 15:50:06;;;;;;;10.23;5.15;;;;;;;;;;4980940;28;20479;-62
2023/09/11 15:53:00;;;;;;;10.68;5.50;;;;;;;;;;4978463;28;20058;-62
2023/09/11 15:55:54;;;;;;;10.73;6.28;;;;;;;;;;4981931;28;20062;-62
2023/09/11 15:58:43;;;;;;;12.23;6.05;;;;;;;;;;4979337;28;20056;-61
2023/09/11 16:01:36;;;;;;;10.63;6.53;;;;;;;;;;4980973;28;20062;-46
2023/09/11 16:04:09;;;;;;;8.00;5.38;;;;;;;;;;4981916;28;21110;-50
2023/09/11 16:06:57;;;;;;;6.68;5.47;;;;;;;;;;4981366;28;20065;-51
2023/09/11 16:09:50;;;;;;;10.27;5.72;;;;;;;;;;4978327;28;20054;-62
2023/09/11 16:12:38;;;;;;;10.93;6.30;;;;;;;;;;4983488;28;20069;-65
2023/09/11 16:15:39;;;;;;;10.85;5.70;;;;;;;;;;4978048;28;20061;-63
2023/09/11 16:18:33;;;;;;;9.45;5.68;;;;;;;;;;4976138;28;20098;-63
2023/09/11 16:21:20;;;;;;;9.48;5.82;;;;;;;;;;4979213;28;20054;-62
2023/09/11 16:24:07;;;;;;;9.25;5.68;;;;;;;;;;4978888;28;20514;-62
2023/09/11 16:27:01;;;;;;;12.88;6.10;;;;;;;;;;4978157;28;20058;-63
2023/09/11 16:29:49;;;;;;;;;;;;;;;;;;4976131;28;20096;-51
2023/09/11 16:32:43;;;;;;;12.15;6.10;;;;;;;;;;4971407;28;19929;-60
2023/09/11 16:35:31;;;;;;;13.77;6.63;;;;;;;;;;4966933;28;20054;-59
2023/09/11 16:38:25;;;;;;;10.07;6.43;;;;;;;;;;4975091;28;20483;-60
2023/09/11 16:41:12;;;;;;;11.85;7.90;;;;;;;;;;4978728;28;20498;-61